sensor_id;sensor_type;location;lat;lon;timestamp;pressure;altitude;pressure_sealevel;temperature
71081;BMP180;58740;50.672;18.690;2023-11-18T00:02:00;99013.60;;;4.82
71081;BMP180;58740;50.672;18.690;2023-11-18T00:04:34;99010.20;;;4.82
71081;BMP180;58740;50.672;18.690;2023-11-18T00:07:07;99014.60;;;4.80
71081;BMP180;58740;50.672;18.690;2023-11-18T00:09:41;99008.60;;;4.80
71081;BMP180;58740;50.672;18.690;2023-11-18T00:12:17;99011.80;;;4.80
71081;BMP180;58740;50.672;18.690;2023-11-18T00:14:51;99013.20;;;4.80
71081;BMP180;58740;50.672;18.690;2023-11-18T00:17:24;99011.60;;;4.80
71081;BMP180;58740;50.672;18.690;2023-11-18T00:19:57;99016.80;;;4.80
71081;BMP180;58740;50.672;18.690;2023-11-18T00:22:31;99019.60;;;4.80
71081;BMP180;58740;50.672;18.690;2023-11-18T00:25:05;99025.20;;;4.80
71081;BMP180;58740;50.672;18.690;2023-11-18T00:27:40;99019.60;;;4.80
71081;BMP180;58740;50.672;18.690;2023-11-18T00:30:14;99024.80;;;4.80
71081;BMP180;58740;50.672;18.690;2023-11-18T00:32:48;99029.60;;;4.80
71081;BMP180;58740;50.672;18.690;2023-11-18T00:35:21;99032.60;;;4.80
71081;BMP180;58740;50.672;18.690;2023-11-18T00:37:55;99034.60;;;4.80
71081;BMP180;58740;50.672;18.690;2023-11-18T00:40:28;99035.40;;;4.80
71081;BMP180;58740;50.672;18.690;2023-11-18T00:43:02;99036.00;;;4.80
71081;BMP180;58740;50.672;18.690;2023-11-18T00:45:35;99030.40;;;4.80
71081;BMP180;58740;50.672;18.690;2023-11-18T00:48:09;99030.00;;;4.80
71081;BMP180;58740;50.672;18.690;2023-11-18T00:50:42;99029.20;;;4.80
71081;BMP180;58740;50.672;18.690;2023-11-18T00:53:16;99026.60;;;4.80
71081;BMP180;58740;50.672;18.690;2023-11-18T00:55:49;99035.00;;;4.80
71081;BMP180;58740;50.672;18.690;2023-11-18T00:58:23;99035.20;;;4.80
71081;BMP180;58740;50.672;18.690;2023-11-18T01:00:56;99033.60;;;4.80
71081;BMP180;58740;50.672;18.690;2023-11-18T01:03:29;99036.80;;;4.80
71081;BMP180;58740;50.672;18.690;2023-11-18T01:06:03;99034.60;;;4.80
71081;BMP180;58740;50.672;18.690;2023-11-18T01:08:38;99033.20;;;4.80
71081;BMP180;58740;50.672;18.690;2023-11-18T01:11:12;99030.20;;;4.80
71081;BMP180;58740;50.672;18.690;2023-11-18T01:13:51;99030.40;;;4.80
71081;BMP180;58740;50.672;18.690;2023-11-18T01:16:26;99034.80;;;4.80
71081;BMP180;58740;50.672;18.690;2023-11-18T01:19:00;99027.60;;;4.80
71081;BMP180;58740;50.672;18.690;2023-11-18T01:21:33;99026.80;;;4.80
71081;BMP180;58740;50.672;18.690;2023-11-18T01:24:09;99023.40;;;4.80
71081;BMP180;58740;50.672;18.690;2023-11-18T01:26:43;99019.60;;;4.80
71081;BMP180;58740;50.672;18.690;2023-11-18T01:29:17;99024.40;;;4.80
71081;BMP180;58740;50.672;18.690;2023-11-18T01:31:54;99020.40;;;4.80
71081;BMP180;58740;50.672;18.690;2023-11-18T01:34:28;99018.40;;;4.80
71081;BMP180;58740;50.672;18.690;2023-11-18T01:37:02;99012.40;;;4.80
71081;BMP180;58740;50.672;18.690;2023-11-18T01:39:37;99015.80;;;4.90
71081;BMP180;58740;50.672;18.690;2023-11-18T01:42:10;99013.40;;;4.88
71081;BMP180;58740;50.672;18.690;2023-11-18T01:44:44;99005.00;;;4.84
71081;BMP180;58740;50.672;18.690;2023-11-18T01:47:17;99005.80;;;4.80
71081;BMP180;58740;50.672;18.690;2023-11-18T01:49:51;99002.20;;;4.80
71081;BMP180;58740;50.672;18.690;2023-11-18T01:52:24;99004.20;;;4.80
71081;BMP180;58740;50.672;18.690;2023-11-18T01:54:59;99002.60;;;4.80
71081;BMP180;58740;50.672;18.690;2023-11-18T01:57:32;99014.20;;;4.80
71081;BMP180;58740;50.672;18.690;2023-11-18T02:00:09;99019.40;;;4.80
71081;BMP180;58740;50.672;18.690;2023-11-18T02:02:44;99015.20;;;4.80
71081;BMP180;58740;50.672;18.690;2023-11-18T02:05:17;99019.00;;;4.80
71081;BMP180;58740;50.672;18.690;2023-11-18T02:07:51;99024.40;;;4.80
71081;BMP180;58740;50.672;18.690;2023-11-18T02:10:25;99023.40;;;4.80
71081;BMP180;58740;50.672;18.690;2023-11-18T02:13:06;99024.20;;;4.80
71081;BMP180;58740;50.672;18.690;2023-11-18T02:15:43;99030.20;;;4.80
71081;BMP180;58740;50.672;18.690;2023-11-18T02:18:18;99024.40;;;4.80
71081;BMP180;58740;50.672;18.690;2023-11-18T02:20:52;99027.00;;;4.76
71081;BMP180;58740;50.672;18.690;2023-11-18T02:23:26;99026.20;;;4.78
71081;BMP180;58740;50.672;18.690;2023-11-18T02:25:59;99030.20;;;4.72
71081;BMP180;58740;50.672;18.690;2023-11-18T02:28:33;99026.40;;;4.70
71081;BMP180;58740;50.672;18.690;2023-11-18T02:31:16;99029.60;;;4.74
71081;BMP180;58740;50.672;18.690;2023-11-18T02:34:00;99023.40;;;4.72
71081;BMP180;58740;50.672;18.690;2023-11-18T02:36:43;99028.40;;;4.80
71081;BMP180;58740;50.672;18.690;2023-11-18T02:39:25;99033.00;;;4.80
71081;BMP180;58740;50.672;18.690;2023-11-18T02:42:02;99036.60;;;4.78
71081;BMP180;58740;50.672;18.690;2023-11-18T02:44:41;99035.20;;;4.74
71081;BMP180;58740;50.672;18.690;2023-11-18T02:47:15;99038.40;;;4.76
71081;BMP180;58740;50.672;18.690;2023-11-18T02:49:56;99036.60;;;4.80
71081;BMP180;58740;50.672;18.690;2023-11-18T02:52:37;99044.20;;;4.80
71081;BMP180;58740;50.672;18.690;2023-11-18T02:55:11;99048.60;;;4.80
71081;BMP180;58740;50.672;18.690;2023-11-18T02:57:45;99041.00;;;4.78
71081;BMP180;58740;50.672;18.690;2023-11-18T03:00:19;99027.40;;;4.74
71081;BMP180;58740;50.672;18.690;2023-11-18T03:02:55;99033.00;;;4.70
71081;BMP180;58740;50.672;18.690;2023-11-18T03:05:29;99042.80;;;4.70
71081;BMP180;58740;50.672;18.690;2023-11-18T03:08:03;99041.00;;;4.70
71081;BMP180;58740;50.672;18.690;2023-11-18T03:10:38;99047.00;;;4.74
71081;BMP180;58740;50.672;18.690;2023-11-18T03:13:16;99049.00;;;4.78
71081;BMP180;58740;50.672;18.690;2023-11-18T03:15:49;99054.40;;;4.78
71081;BMP180;58740;50.672;18.690;2023-11-18T03:18:24;99058.60;;;4.70
71081;BMP180;58740;50.672;18.690;2023-11-18T03:20:58;99065.00;;;4.76
71081;BMP180;58740;50.672;18.690;2023-11-18T03:23:32;99069.00;;;4.76
71081;BMP180;58740;50.672;18.690;2023-11-18T03:26:06;99068.60;;;4.72
71081;BMP180;58740;50.672;18.690;2023-11-18T03:28:41;99073.80;;;4.74
71081;BMP180;58740;50.672;18.690;2023-11-18T03:31:15;99070.20;;;4.72
71081;BMP180;58740;50.672;18.690;2023-11-18T03:33:48;99072.80;;;4.78
71081;BMP180;58740;50.672;18.690;2023-11-18T03:36:22;99074.80;;;4.78
71081;BMP180;58740;50.672;18.690;2023-11-18T03:38:55;99066.20;;;4.78
71081;BMP180;58740;50.672;18.690;2023-11-18T03:41:29;99067.20;;;4.80
71081;BMP180;58740;50.672;18.690;2023-11-18T03:44:02;99071.00;;;4.80
71081;BMP180;58740;50.672;18.690;2023-11-18T03:46:35;99073.60;;;4.80
71081;BMP180;58740;50.672;18.690;2023-11-18T03:49:09;99071.00;;;4.76
71081;BMP180;58740;50.672;18.690;2023-11-18T03:51:42;99079.00;;;4.72
71081;BMP180;58740;50.672;18.690;2023-11-18T03:54:16;99081.60;;;4.70
71081;BMP180;58740;50.672;18.690;2023-11-18T03:56:49;99077.80;;;4.70
71081;BMP180;58740;50.672;18.690;2023-11-18T03:59:23;99085.00;;;4.70
71081;BMP180;58740;50.672;18.690;2023-11-18T04:01:56;99079.20;;;4.80
71081;BMP180;58740;50.672;18.690;2023-11-18T04:04:30;99077.80;;;4.80
71081;BMP180;58740;50.672;18.690;2023-11-18T04:07:04;99086.60;;;4.80
71081;BMP180;58740;50.672;18.690;2023-11-18T04:09:38;99083.40;;;4.80
71081;BMP180;58740;50.672;18.690;2023-11-18T04:12:13;99090.60;;;4.80
71081;BMP180;58740;50.672;18.690;2023-11-18T04:14:48;99093.00;;;4.80
71081;BMP180;58740;50.672;18.690;2023-11-18T04:17:21;99091.20;;;4.80
71081;BMP180;58740;50.672;18.690;2023-11-18T04:19:55;99091.00;;;4.80
71081;BMP180;58740;50.672;18.690;2023-11-18T04:22:29;99089.80;;;4.80
71081;BMP180;58740;50.672;18.690;2023-11-18T04:25:02;99088.20;;;4.80
71081;BMP180;58740;50.672;18.690;2023-11-18T04:27:36;99092.40;;;4.80
71081;BMP180;58740;50.672;18.690;2023-11-18T04:30:11;99095.60;;;4.80
71081;BMP180;58740;50.672;18.690;2023-11-18T04:32:46;99101.20;;;4.80
71081;BMP180;58740;50.672;18.690;2023-11-18T04:35:19;99102.40;;;4.80
71081;BMP180;58740;50.672;18.690;2023-11-18T04:37:54;99108.00;;;4.74
71081;BMP180;58740;50.672;18.690;2023-11-18T04:40:28;99112.80;;;4.70
71081;BMP180;58740;50.672;18.690;2023-11-18T04:43:01;99112.20;;;4.58
71081;BMP180;58740;50.672;18.690;2023-11-18T04:45:34;99114.00;;;4.50
71081;BMP180;58740;50.672;18.690;2023-11-18T04:48:08;99119.60;;;4.40
71081;BMP180;58740;50.672;18.690;2023-11-18T04:50:42;99127.00;;;4.30
71081;BMP180;58740;50.672;18.690;2023-11-18T04:53:16;99128.00;;;4.30
71081;BMP180;58740;50.672;18.690;2023-11-18T04:55:49;99128.20;;;4.22
71081;BMP180;58740;50.672;18.690;2023-11-18T04:58:23;99132.80;;;4.14
71081;BMP180;58740;50.672;18.690;2023-11-18T05:00:56;99131.80;;;4.10
71081;BMP180;58740;50.672;18.690;2023-11-18T05:03:30;99141.40;;;4.10
71081;BMP180;58740;50.672;18.690;2023-11-18T05:06:04;99137.60;;;4.00
71081;BMP180;58740;50.672;18.690;2023-11-18T05:08:37;99141.60;;;4.00
71081;BMP180;58740;50.672;18.690;2023-11-18T05:11:10;99144.20;;;4.00
71081;BMP180;58740;50.672;18.690;2023-11-18T05:13:44;99145.40;;;4.00
71081;BMP180;58740;50.672;18.690;2023-11-18T05:16:18;99145.00;;;4.04
71081;BMP180;58740;50.672;18.690;2023-11-18T05:18:51;99147.80;;;4.06
71081;BMP180;58740;50.672;18.690;2023-11-18T05:21:25;99154.00;;;4.00
71081;BMP180;58740;50.672;18.690;2023-11-18T05:23:58;99157.60;;;4.00
71081;BMP180;58740;50.672;18.690;2023-11-18T05:26:31;99165.00;;;4.00
71081;BMP180;58740;50.672;18.690;2023-11-18T05:29:07;99165.40;;;3.92
71081;BMP180;58740;50.672;18.690;2023-11-18T05:31:40;99172.40;;;3.90
71081;BMP180;58740;50.672;18.690;2023-11-18T05:34:14;99177.40;;;3.90
71081;BMP180;58740;50.672;18.690;2023-11-18T05:36:47;99183.40;;;3.80
71081;BMP180;58740;50.672;18.690;2023-11-18T05:39:26;99177.60;;;3.80
71081;BMP180;58740;50.672;18.690;2023-11-18T05:42:03;99178.20;;;3.78
71081;BMP180;58740;50.672;18.690;2023-11-18T05:44:37;99182.60;;;3.80
71081;BMP180;58740;50.672;18.690;2023-11-18T05:47:12;99186.20;;;3.76
71081;BMP180;58740;50.672;18.690;2023-11-18T05:49:45;99192.00;;;3.80
71081;BMP180;58740;50.672;18.690;2023-11-18T05:52:18;99186.40;;;3.78
71081;BMP180;58740;50.672;18.690;2023-11-18T05:54:53;99194.40;;;3.80
71081;BMP180;58740;50.672;18.690;2023-11-18T05:57:26;99194.60;;;3.80
71081;BMP180;58740;50.672;18.690;2023-11-18T05:59:59;99189.40;;;3.70
71081;BMP180;58740;50.672;18.690;2023-11-18T06:02:33;99186.60;;;3.70
71081;BMP180;58740;50.672;18.690;2023-11-18T06:05:09;99186.00;;;3.70
71081;BMP180;58740;50.672;18.690;2023-11-18T06:07:44;99192.80;;;3.72
71081;BMP180;58740;50.672;18.690;2023-11-18T06:10:19;99196.00;;;3.72
71081;BMP180;58740;50.672;18.690;2023-11-18T06:12:52;99196.80;;;3.78
71081;BMP180;58740;50.672;18.690;2023-11-18T06:15:27;99206.00;;;3.76
71081;BMP180;58740;50.672;18.690;2023-11-18T06:18:00;99210.80;;;3.80
71081;BMP180;58740;50.672;18.690;2023-11-18T06:20:36;99214.00;;;3.80
71081;BMP180;58740;50.672;18.690;2023-11-18T06:23:10;99228.80;;;3.80
71081;BMP180;58740;50.672;18.690;2023-11-18T06:25:44;99227.20;;;3.82
71081;BMP180;58740;50.672;18.690;2023-11-18T06:28:17;99225.40;;;3.90
71081;BMP180;58740;50.672;18.690;2023-11-18T06:30:51;99225.20;;;3.90
71081;BMP180;58740;50.672;18.690;2023-11-18T06:33:25;99224.00;;;3.90
71081;BMP180;58740;50.672;18.690;2023-11-18T06:35:59;99231.60;;;3.90
71081;BMP180;58740;50.672;18.690;2023-11-18T06:38:33;99230.20;;;3.90
71081;BMP180;58740;50.672;18.690;2023-11-18T06:41:07;99227.00;;;3.90
71081;BMP180;58740;50.672;18.690;2023-11-18T06:43:45;99232.20;;;3.90
71081;BMP180;58740;50.672;18.690;2023-11-18T06:46:32;99232.80;;;3.90
71081;BMP180;58740;50.672;18.690;2023-11-18T06:49:07;99236.00;;;3.90
71081;BMP180;58740;50.672;18.690;2023-11-18T06:51:43;99245.20;;;3.90
71081;BMP180;58740;50.672;18.690;2023-11-18T06:54:17;99246.00;;;3.90
71081;BMP180;58740;50.672;18.690;2023-11-18T06:56:50;99241.00;;;3.90
71081;BMP180;58740;50.672;18.690;2023-11-18T06:59:25;99249.80;;;3.90
71081;BMP180;58740;50.672;18.690;2023-11-18T07:01:58;99248.20;;;4.00
71081;BMP180;58740;50.672;18.690;2023-11-18T07:04:32;99257.00;;;4.00
71081;BMP180;58740;50.672;18.690;2023-11-18T07:07:05;99260.60;;;4.00
71081;BMP180;58740;50.672;18.690;2023-11-18T07:09:41;99263.60;;;4.00
71081;BMP180;58740;50.672;18.690;2023-11-18T07:12:16;99269.80;;;3.92
71081;BMP180;58740;50.672;18.690;2023-11-18T07:14:51;99269.00;;;3.92
71081;BMP180;58740;50.672;18.690;2023-11-18T07:17:26;99264.80;;;3.90
71081;BMP180;58740;50.672;18.690;2023-11-18T07:19:59;99269.40;;;3.90
71081;BMP180;58740;50.672;18.690;2023-11-18T07:22:33;99276.60;;;3.90
71081;BMP180;58740;50.672;18.690;2023-11-18T07:25:08;99276.20;;;3.86
71081;BMP180;58740;50.672;18.690;2023-11-18T07:27:41;99280.40;;;3.80
71081;BMP180;58740;50.672;18.690;2023-11-18T07:30:15;99286.00;;;3.80
71081;BMP180;58740;50.672;18.690;2023-11-18T07:32:50;99289.60;;;3.70
71081;BMP180;58740;50.672;18.690;2023-11-18T07:35:24;99293.80;;;3.70
71081;BMP180;58740;50.672;18.690;2023-11-18T07:37:59;99298.00;;;3.68
71081;BMP180;58740;50.672;18.690;2023-11-18T07:40:32;99300.00;;;3.60
71081;BMP180;58740;50.672;18.690;2023-11-18T07:43:08;99300.20;;;3.50
71081;BMP180;58740;50.672;18.690;2023-11-18T07:45:42;99313.20;;;3.40
71081;BMP180;58740;50.672;18.690;2023-11-18T07:48:16;99312.80;;;3.40
71081;BMP180;58740;50.672;18.690;2023-11-18T07:50:50;99319.20;;;3.30
71081;BMP180;58740;50.672;18.690;2023-11-18T07:53:23;99325.60;;;3.20
71081;BMP180;58740;50.672;18.690;2023-11-18T07:55:57;99325.00;;;3.10
71081;BMP180;58740;50.672;18.690;2023-11-18T07:58:31;99334.20;;;3.10
71081;BMP180;58740;50.672;18.690;2023-11-18T08:01:06;99326.60;;;3.10
71081;BMP180;58740;50.672;18.690;2023-11-18T08:03:41;99330.20;;;3.10
71081;BMP180;58740;50.672;18.690;2023-11-18T08:06:14;99331.00;;;3.10
71081;BMP180;58740;50.672;18.690;2023-11-18T08:08:49;99334.80;;;3.10
71081;BMP180;58740;50.672;18.690;2023-11-18T08:11:22;99335.00;;;3.08
71081;BMP180;58740;50.672;18.690;2023-11-18T08:13:55;99337.00;;;3.10
71081;BMP180;58740;50.672;18.690;2023-11-18T08:16:31;99333.00;;;3.00
71081;BMP180;58740;50.672;18.690;2023-11-18T08:19:05;99340.60;;;3.00
71081;BMP180;58740;50.672;18.690;2023-11-18T08:21:40;99341.40;;;2.90
71081;BMP180;58740;50.672;18.690;2023-11-18T08:24:13;99349.40;;;2.88
71081;BMP180;58740;50.672;18.690;2023-11-18T08:26:48;99344.20;;;2.80
71081;BMP180;58740;50.672;18.690;2023-11-18T08:29:22;99353.60;;;2.80
71081;BMP180;58740;50.672;18.690;2023-11-18T08:31:56;99360.20;;;2.80
71081;BMP180;58740;50.672;18.690;2023-11-18T08:34:30;99363.60;;;2.78
71081;BMP180;58740;50.672;18.690;2023-11-18T08:37:06;99372.80;;;2.70
71081;BMP180;58740;50.672;18.690;2023-11-18T08:39:39;99378.40;;;2.70
71081;BMP180;58740;50.672;18.690;2023-11-18T08:42:13;99378.00;;;2.70
71081;BMP180;58740;50.672;18.690;2023-11-18T08:44:46;99384.20;;;2.70
71081;BMP180;58740;50.672;18.690;2023-11-18T08:47:21;99377.80;;;2.70
71081;BMP180;58740;50.672;18.690;2023-11-18T08:49:56;99382.60;;;2.70
71081;BMP180;58740;50.672;18.690;2023-11-18T08:52:30;99382.80;;;2.70
71081;BMP180;58740;50.672;18.690;2023-11-18T08:55:03;99381.00;;;2.70
71081;BMP180;58740;50.672;18.690;2023-11-18T08:57:50;99397.60;;;2.70
71081;BMP180;58740;50.672;18.690;2023-11-18T09:00:36;99398.60;;;2.70
71081;BMP180;58740;50.672;18.690;2023-11-18T09:03:26;99398.40;;;2.60
71081;BMP180;58740;50.672;18.690;2023-11-18T09:06:02;99401.40;;;2.60
71081;BMP180;58740;50.672;18.690;2023-11-18T09:08:38;99406.40;;;2.60
71081;BMP180;58740;50.672;18.690;2023-11-18T09:11:15;99404.40;;;2.60
71081;BMP180;58740;50.672;18.690;2023-11-18T09:13:50;99402.20;;;2.60
71081;BMP180;58740;50.672;18.690;2023-11-18T09:16:26;99404.40;;;2.60
71081;BMP180;58740;50.672;18.690;2023-11-18T09:19:02;99404.40;;;2.60
71081;BMP180;58740;50.672;18.690;2023-11-18T09:21:38;99413.80;;;2.60
71081;BMP180;58740;50.672;18.690;2023-11-18T09:24:12;99411.80;;;2.64
71081;BMP180;58740;50.672;18.690;2023-11-18T09:26:45;99417.20;;;2.68
71081;BMP180;58740;50.672;18.690;2023-11-18T09:29:22;99422.00;;;2.62
71081;BMP180;58740;50.672;18.690;2023-11-18T09:31:57;99425.20;;;2.60
71081;BMP180;58740;50.672;18.690;2023-11-18T09:34:31;99420.80;;;2.64
71081;BMP180;58740;50.672;18.690;2023-11-18T09:37:05;99427.40;;;2.60
71081;BMP180;58740;50.672;18.690;2023-11-18T09:39:41;99433.40;;;2.60
71081;BMP180;58740;50.672;18.690;2023-11-18T09:42:18;99435.00;;;2.60
71081;BMP180;58740;50.672;18.690;2023-11-18T09:44:51;99437.20;;;2.60
71081;BMP180;58740;50.672;18.690;2023-11-18T09:47:28;99442.00;;;2.60
71081;BMP180;58740;50.672;18.690;2023-11-18T09:50:04;99439.40;;;2.60
71081;BMP180;58740;50.672;18.690;2023-11-18T09:52:49;99441.80;;;2.60
71081;BMP180;58740;50.672;18.690;2023-11-18T09:55:35;99450.40;;;2.60
71081;BMP180;58740;50.672;18.690;2023-11-18T09:58:19;99448.20;;;2.50
71081;BMP180;58740;50.672;18.690;2023-11-18T10:01:00;99455.20;;;2.50
71081;BMP180;58740;50.672;18.690;2023-11-18T10:03:36;99462.00;;;2.54
71081;BMP180;58740;50.672;18.690;2023-11-18T10:06:11;99454.40;;;2.50
71081;BMP180;58740;50.672;18.690;2023-11-18T10:08:46;99450.60;;;2.50
71081;BMP180;58740;50.672;18.690;2023-11-18T10:11:25;99448.00;;;2.50
71081;BMP180;58740;50.672;18.690;2023-11-18T10:14:01;99445.80;;;2.50
71081;BMP180;58740;50.672;18.690;2023-11-18T10:16:39;99451.20;;;2.50
71081;BMP180;58740;50.672;18.690;2023-11-18T10:19:13;99459.00;;;2.50
71081;BMP180;58740;50.672;18.690;2023-11-18T10:21:51;99461.60;;;2.50
71081;BMP180;58740;50.672;18.690;2023-11-18T10:24:25;99469.20;;;2.50
71081;BMP180;58740;50.672;18.690;2023-11-18T10:26:59;99468.60;;;2.60
71081;BMP180;58740;50.672;18.690;2023-11-18T10:29:37;99471.00;;;2.60
71081;BMP180;58740;50.672;18.690;2023-11-18T10:32:11;99470.40;;;2.50
71081;BMP180;58740;50.672;18.690;2023-11-18T10:34:52;99470.80;;;2.50
71081;BMP180;58740;50.672;18.690;2023-11-18T10:37:28;99474.20;;;2.50
71081;BMP180;58740;50.672;18.690;2023-11-18T10:40:09;99477.20;;;2.50
71081;BMP180;58740;50.672;18.690;2023-11-18T10:42:46;99480.80;;;2.50
71081;BMP180;58740;50.672;18.690;2023-11-18T10:45:30;99485.00;;;2.60
71081;BMP180;58740;50.672;18.690;2023-11-18T10:48:06;99490.20;;;2.60
71081;BMP180;58740;50.672;18.690;2023-11-18T10:50:41;99500.60;;;2.60
71081;BMP180;58740;50.672;18.690;2023-11-18T10:53:27;99509.00;;;2.70
71081;BMP180;58740;50.672;18.690;2023-11-18T10:56:01;99506.60;;;2.72
71081;BMP180;58740;50.672;18.690;2023-11-18T10:58:39;99513.80;;;2.80
71081;BMP180;58740;50.672;18.690;2023-11-18T11:01:13;99511.60;;;2.80
71081;BMP180;58740;50.672;18.690;2023-11-18T11:03:57;99510.20;;;2.80
71081;BMP180;58740;50.672;18.690;2023-11-18T11:06:35;99513.60;;;2.80
71081;BMP180;58740;50.672;18.690;2023-11-18T11:09:08;99517.40;;;2.80
71081;BMP180;58740;50.672;18.690;2023-11-18T11:11:54;99521.40;;;2.80
71081;BMP180;58740;50.672;18.690;2023-11-18T11:14:34;99521.20;;;2.78
71081;BMP180;58740;50.672;18.690;2023-11-18T11:17:13;99523.80;;;2.70
71081;BMP180;58740;50.672;18.690;2023-11-18T11:20:02;99518.20;;;2.70
71081;BMP180;58740;50.672;18.690;2023-11-18T11:23:03;99516.00;;;2.70
71081;BMP180;58740;50.672;18.690;2023-11-18T11:25:59;99514.80;;;2.70
71081;BMP180;58740;50.672;18.690;2023-11-18T11:28:45;99518.60;;;2.70
71081;BMP180;58740;50.672;18.690;2023-11-18T11:31:30;99525.20;;;2.70
71081;BMP180;58740;50.672;18.690;2023-11-18T11:34:09;99521.80;;;2.74
71081;BMP180;58740;50.672;18.690;2023-11-18T11:36:48;99531.00;;;2.80
71081;BMP180;58740;50.672;18.690;2023-11-18T11:39:23;99533.20;;;2.80
71081;BMP180;58740;50.672;18.690;2023-11-18T11:42:03;99535.40;;;2.80
71081;BMP180;58740;50.672;18.690;2023-11-18T11:44:42;99536.40;;;2.90
71081;BMP180;58740;50.672;18.690;2023-11-18T11:47:16;99531.60;;;2.90
71081;BMP180;58740;50.672;18.690;2023-11-18T11:49:57;99542.80;;;2.90
71081;BMP180;58740;50.672;18.690;2023-11-18T11:52:38;99550.60;;;2.92
71081;BMP180;58740;50.672;18.690;2023-11-18T11:55:27;99545.80;;;2.92
71081;BMP180;58740;50.672;18.690;2023-11-18T11:58:03;99541.80;;;2.98
71081;BMP180;58740;50.672;18.690;2023-11-18T12:00:38;99543.40;;;3.00
71081;BMP180;58740;50.672;18.690;2023-11-18T12:03:14;99543.40;;;3.00
71081;BMP180;58740;50.672;18.690;2023-11-18T12:05:54;99549.80;;;3.00
71081;BMP180;58740;50.672;18.690;2023-11-18T12:08:29;99552.20;;;3.10
71081;BMP180;58740;50.672;18.690;2023-11-18T12:11:03;99556.80;;;3.10
71081;BMP180;58740;50.672;18.690;2023-11-18T12:13:41;99558.00;;;3.10
71081;BMP180;58740;50.672;18.690;2023-11-18T12:17:03;99571.20;;;3.10
71081;BMP180;58740;50.672;18.690;2023-11-18T12:19:42;99569.80;;;3.10
71081;BMP180;58740;50.672;18.690;2023-11-18T12:22:21;99564.40;;;3.10
71081;BMP180;58740;50.672;18.690;2023-11-18T12:25:32;99573.80;;;3.10
71081;BMP180;58740;50.672;18.690;2023-11-18T12:28:17;99573.00;;;3.10
71081;BMP180;58740;50.672;18.690;2023-11-18T12:30:54;99575.00;;;3.18
71081;BMP180;58740;50.672;18.690;2023-11-18T12:34:05;99573.40;;;3.18
71081;BMP180;58740;50.672;18.690;2023-11-18T12:40:44;99574.40;;;3.10
71081;BMP180;58740;50.672;18.690;2023-11-18T12:43:46;99577.60;;;3.02
71081;BMP180;58740;50.672;18.690;2023-11-18T12:46:49;99583.80;;;3.10
71081;BMP180;58740;50.672;18.690;2023-11-18T12:49:26;99589.40;;;3.00
71081;BMP180;58740;50.672;18.690;2023-11-18T12:52:00;99589.00;;;3.00
71081;BMP180;58740;50.672;18.690;2023-11-18T12:54:41;99597.80;;;3.00
71081;BMP180;58740;50.672;18.690;2023-11-18T12:57:16;99607.40;;;2.96
71081;BMP180;58740;50.672;18.690;2023-11-18T12:59:49;99606.80;;;3.00
71081;BMP180;58740;50.672;18.690;2023-11-18T13:02:23;99610.20;;;3.00
71081;BMP180;58740;50.672;18.690;2023-11-18T13:04:57;99617.40;;;2.92
71081;BMP180;58740;50.672;18.690;2023-11-18T13:07:31;99614.40;;;2.98
71081;BMP180;58740;50.672;18.690;2023-11-18T13:10:05;99621.60;;;3.00
71081;BMP180;58740;50.672;18.690;2023-11-18T13:12:40;99628.80;;;3.00
71081;BMP180;58740;50.672;18.690;2023-11-18T13:15:14;99620.60;;;3.00
71081;BMP180;58740;50.672;18.690;2023-11-18T13:18:02;99624.00;;;2.90
71081;BMP180;58740;50.672;18.690;2023-11-18T13:20:38;99628.80;;;2.90
71081;BMP180;58740;50.672;18.690;2023-11-18T13:23:16;99634.40;;;2.90
71081;BMP180;58740;50.672;18.690;2023-11-18T13:25:51;99632.20;;;2.90
71081;BMP180;58740;50.672;18.690;2023-11-18T13:28:27;99642.20;;;2.90
71081;BMP180;58740;50.672;18.690;2023-11-18T13:31:01;99645.40;;;2.80
71081;BMP180;58740;50.672;18.690;2023-11-18T13:33:38;99648.60;;;2.80
71081;BMP180;58740;50.672;18.690;2023-11-18T13:36:14;99651.00;;;2.80
71081;BMP180;58740;50.672;18.690;2023-11-18T13:38:51;99645.60;;;2.80
71081;BMP180;58740;50.672;18.690;2023-11-18T13:41:33;99647.20;;;2.74
71081;BMP180;58740;50.672;18.690;2023-11-18T13:44:08;99639.80;;;2.70
71081;BMP180;58740;50.672;18.690;2023-11-18T13:46:45;99646.00;;;2.72
71081;BMP180;58740;50.672;18.690;2023-11-18T13:49:23;99645.20;;;2.74
71081;BMP180;58740;50.672;18.690;2023-11-18T13:52:01;99653.60;;;2.80
71081;BMP180;58740;50.672;18.690;2023-11-18T13:54:36;99657.00;;;2.80
71081;BMP180;58740;50.672;18.690;2023-11-18T13:57:10;99660.60;;;2.78
71081;BMP180;58740;50.672;18.690;2023-11-18T13:59:44;99665.80;;;2.80
71081;BMP180;58740;50.672;18.690;2023-11-18T14:02:17;99668.00;;;2.80
71081;BMP180;58740;50.672;18.690;2023-11-18T14:04:52;99664.60;;;2.76
71081;BMP180;58740;50.672;18.690;2023-11-18T14:07:28;99672.00;;;2.80
71081;BMP180;58740;50.672;18.690;2023-11-18T14:10:02;99673.00;;;2.80
71081;BMP180;58740;50.672;18.690;2023-11-18T14:12:40;99669.20;;;2.78
71081;BMP180;58740;50.672;18.690;2023-11-18T14:15:14;99667.00;;;2.76
71081;BMP180;58740;50.672;18.690;2023-11-18T14:17:48;99666.40;;;2.80
71081;BMP180;58740;50.672;18.690;2023-11-18T14:20:21;99669.60;;;2.80
71081;BMP180;58740;50.672;18.690;2023-11-18T14:22:55;99669.60;;;2.80
71081;BMP180;58740;50.672;18.690;2023-11-18T14:25:30;99673.40;;;2.74
71081;BMP180;58740;50.672;18.690;2023-11-18T14:28:04;99667.00;;;2.70
71081;BMP180;58740;50.672;18.690;2023-11-18T14:30:40;99664.80;;;2.68
71081;BMP180;58740;50.672;18.690;2023-11-18T14:33:14;99666.00;;;2.60
71081;BMP180;58740;50.672;18.690;2023-11-18T14:35:48;99672.60;;;2.60
71081;BMP180;58740;50.672;18.690;2023-11-18T14:38:22;99662.40;;;2.60
71081;BMP180;58740;50.672;18.690;2023-11-18T14:40:55;99659.00;;;2.60
71081;BMP180;58740;50.672;18.690;2023-11-18T14:43:29;99664.20;;;2.60
71081;BMP180;58740;50.672;18.690;2023-11-18T14:46:02;99661.40;;;2.60
71081;BMP180;58740;50.672;18.690;2023-11-18T14:48:37;99669.40;;;2.64
71081;BMP180;58740;50.672;18.690;2023-11-18T14:51:10;99671.60;;;2.64
71081;BMP180;58740;50.672;18.690;2023-11-18T14:53:44;99670.40;;;2.64
71081;BMP180;58740;50.672;18.690;2023-11-18T14:56:17;99681.60;;;2.64
71081;BMP180;58740;50.672;18.690;2023-11-18T14:58:51;99680.80;;;2.60
71081;BMP180;58740;50.672;18.690;2023-11-18T15:01:24;99678.60;;;2.60
71081;BMP180;58740;50.672;18.690;2023-11-18T15:03:58;99681.40;;;2.60